sensor_id;sensor_type;location;lat;lon;timestamp;P1;durP1;ratioP1;P2;durP2;ratioP2
10410;SDS011;5251;52.112;8.606;2023-02-01T00:00:44;13.65;;;2.80;;
10410;SDS011;5251;52.112;8.606;2023-02-01T00:03:09;11.40;;;3.03;;
10410;SDS011;5251;52.112;8.606;2023-02-01T00:05:36;10.15;;;2.83;;
10410;SDS011;5251;52.112;8.606;2023-02-01T00:08:01;13.00;;;3.10;;
10410;SDS011;5251;52.112;8.606;2023-02-01T00:10:27;11.05;;;2.95;;
10410;SDS011;5251;52.112;8.606;2023-02-01T00:12:52;15.00;;;4.13;;
10410;SDS011;5251;52.112;8.606;2023-02-01T00:15:18;9.50;;;2.72;;
10410;SDS011;5251;52.112;8.606;2023-02-01T00:17:44;10.55;;;2.80;;
10410;SDS011;5251;52.112;8.606;2023-02-01T00:20:10;12.82;;;3.40;;
10410;SDS011;5251;52.112;8.606;2023-02-01T00:22:36;13.55;;;3.40;;
10410;SDS011;5251;52.112;8.606;2023-02-01T00:25:01;11.95;;;3.55;;
10410;SDS011;5251;52.112;8.606;2023-02-01T00:27:27;10.82;;;3.35;;
10410;SDS011;5251;52.112;8.606;2023-02-01T00:29:54;11.50;;;2.90;;
10410;SDS011;5251;52.112;8.606;2023-02-01T00:32:20;11.40;;;2.83;;
10410;SDS011;5251;52.112;8.606;2023-02-01T00:34:46;14.95;;;2.95;;
10410;SDS011;5251;52.112;8.606;2023-02-01T00:37:11;14.73;;;3.25;;
10410;SDS011;5251;52.112;8.606;2023-02-01T00:39:37;12.77;;;3.70;;
10410;SDS011;5251;52.112;8.606;2023-02-01T00:42:02;13.05;;;3.03;;
10410;SDS011;5251;52.112;8.606;2023-02-01T00:44:28;10.57;;;2.45;;
10410;SDS011;5251;52.112;8.606;2023-02-01T00:46:58;12.50;;;3.20;;
10410;SDS011;5251;52.112;8.606;2023-02-01T00:49:23;14.43;;;2.97;;
10410;SDS011;5251;52.112;8.606;2023-02-01T00:51:49;11.38;;;2.70;;
10410;SDS011;5251;52.112;8.606;2023-02-01T00:54:14;12.07;;;3.17;;
10410;SDS011;5251;52.112;8.606;2023-02-01T00:56:40;15.60;;;3.13;;
10410;SDS011;5251;52.112;8.606;2023-02-01T00:59:06;11.07;;;3.00;;
10410;SDS011;5251;52.112;8.606;2023-02-01T01:01:32;10.73;;;2.70;;
10410;SDS011;5251;52.112;8.606;2023-02-01T01:03:58;12.25;;;2.70;;
10410;SDS011;5251;52.112;8.606;2023-02-01T01:06:28;11.20;;;3.00;;
10410;SDS011;5251;52.112;8.606;2023-02-01T01:08:56;12.00;;;2.67;;
10410;SDS011;5251;52.112;8.606;2023-02-01T01:11:27;10.63;;;2.92;;
10410;SDS011;5251;52.112;8.606;2023-02-01T01:13:55;10.45;;;2.60;;
10410;SDS011;5251;52.112;8.606;2023-02-01T01:16:23;10.63;;;2.78;;
10410;SDS011;5251;52.112;8.606;2023-02-01T01:18:50;13.95;;;4.00;;
10410;SDS011;5251;52.112;8.606;2023-02-01T01:21:16;10.80;;;3.10;;
10410;SDS011;5251;52.112;8.606;2023-02-01T01:23:43;14.43;;;3.53;;
10410;SDS011;5251;52.112;8.606;2023-02-01T01:26:11;9.43;;;2.63;;
10410;SDS011;5251;52.112;8.606;2023-02-01T01:28:39;8.85;;;2.55;;
10410;SDS011;5251;52.112;8.606;2023-02-01T01:31:09;12.63;;;3.40;;
10410;SDS011;5251;52.112;8.606;2023-02-01T01:33:35;9.20;;;2.60;;
10410;SDS011;5251;52.112;8.606;2023-02-01T01:36:02;10.23;;;2.53;;
10410;SDS011;5251;52.112;8.606;2023-02-01T01:38:30;11.45;;;3.38;;
10410;SDS011;5251;52.112;8.606;2023-02-01T01:40:55;10.85;;;2.65;;
10410;SDS011;5251;52.112;8.606;2023-02-01T01:43:21;13.52;;;2.67;;
10410;SDS011;5251;52.112;8.606;2023-02-01T01:45:47;12.27;;;3.35;;
10410;SDS011;5251;52.112;8.606;2023-02-01T01:48:22;10.80;;;3.05;;
10410;SDS011;5251;52.112;8.606;2023-02-01T01:50:56;10.23;;;2.83;;
10410;SDS011;5251;52.112;8.606;2023-02-01T01:53:27;9.35;;;2.40;;
10410;SDS011;5251;52.112;8.606;2023-02-01T01:56:00;9.20;;;2.85;;
10410;SDS011;5251;52.112;8.606;2023-02-01T01:58:27;13.50;;;3.30;;
10410;SDS011;5251;52.112;8.606;2023-02-01T02:00:56;12.73;;;2.60;;
10410;SDS011;5251;52.112;8.606;2023-02-01T02:05:58;13.02;;;2.95;;
10410;SDS011;5251;52.112;8.606;2023-02-01T02:08:27;9.85;;;2.92;;
10410;SDS011;5251;52.112;8.606;2023-02-01T02:10:53;12.27;;;3.55;;
10410;SDS011;5251;52.112;8.606;2023-02-01T02:13:35;8.70;;;3.15;;
10410;SDS011;5251;52.112;8.606;2023-02-01T02:16:16;12.07;;;3.15;;
10410;SDS011;5251;52.112;8.606;2023-02-01T02:33:20;11.45;;;3.50;;
10410;SDS011;5251;52.112;8.606;2023-02-01T02:39:11;12.07;;;3.75;;
10410;SDS011;5251;52.112;8.606;2023-02-01T02:42:03;11.70;;;3.58;;
10410;SDS011;5251;52.112;8.606;2023-02-01T02:53:32;13.50;;;3.40;;
10410;SDS011;5251;52.112;8.606;2023-02-01T02:56:24;10.95;;;2.95;;
10410;SDS011;5251;52.112;8.606;2023-02-01T02:59:11;9.00;;;3.50;;
10410;SDS011;5251;52.112;8.606;2023-02-01T03:01:57;11.48;;;3.13;;
10410;SDS011;5251;52.112;8.606;2023-02-01T03:04:42;12.20;;;3.75;;
10410;SDS011;5251;52.112;8.606;2023-02-01T03:07:11;9.88;;;2.88;;
10410;SDS011;5251;52.112;8.606;2023-02-01T03:09:39;12.07;;;3.78;;
10410;SDS011;5251;52.112;8.606;2023-02-01T03:12:09;13.85;;;3.47;;
10410;SDS011;5251;52.112;8.606;2023-02-01T03:14:59;11.05;;;3.70;;
10410;SDS011;5251;52.112;8.606;2023-02-01T03:17:33;10.88;;;3.17;;
10410;SDS011;5251;52.112;8.606;2023-02-01T03:20:03;12.52;;;3.72;;
10410;SDS011;5251;52.112;8.606;2023-02-01T03:22:31;8.88;;;3.53;;
10410;SDS011;5251;52.112;8.606;2023-02-01T03:25:10;12.18;;;2.83;;
10410;SDS011;5251;52.112;8.606;2023-02-01T03:27:42;11.20;;;3.25;;
10410;SDS011;5251;52.112;8.606;2023-02-01T03:30:22;11.70;;;3.33;;
10410;SDS011;5251;52.112;8.606;2023-02-01T03:32:51;8.98;;;2.85;;
10410;SDS011;5251;52.112;8.606;2023-02-01T03:38:46;10.13;;;2.78;;
10410;SDS011;5251;52.112;8.606;2023-02-01T03:41:17;9.02;;;3.15;;
10410;SDS011;5251;52.112;8.606;2023-02-01T03:44:19;10.68;;;2.75;;
10410;SDS011;5251;52.112;8.606;2023-02-01T03:49:26;11.65;;;2.85;;
10410;SDS011;5251;52.112;8.606;2023-02-01T03:51:54;13.25;;;2.83;;
10410;SDS011;5251;52.112;8.606;2023-02-01T03:54:22;8.82;;;3.00;;
10410;SDS011;5251;52.112;8.606;2023-02-01T03:56:50;10.13;;;3.17;;
10410;SDS011;5251;52.112;8.606;2023-02-01T03:59:19;11.43;;;3.38;;
10410;SDS011;5251;52.112;8.606;2023-02-01T04:01:44;11.98;;;3.47;;
10410;SDS011;5251;52.112;8.606;2023-02-01T04:04:10;13.70;;;3.28;;
10410;SDS011;5251;52.112;8.606;2023-02-01T04:06:44;9.60;;;3.10;;
10410;SDS011;5251;52.112;8.606;2023-02-01T04:09:11;13.13;;;3.20;;
10410;SDS011;5251;52.112;8.606;2023-02-01T04:11:36;8.55;;;2.80;;
10410;SDS011;5251;52.112;8.606;2023-02-01T04:14:02;9.75;;;2.85;;
10410;SDS011;5251;52.112;8.606;2023-02-01T04:16:29;9.25;;;2.95;;
10410;SDS011;5251;52.112;8.606;2023-02-01T04:18:56;10.45;;;2.58;;
10410;SDS011;5251;52.112;8.606;2023-02-01T04:21:22;9.50;;;2.83;;
10410;SDS011;5251;52.112;8.606;2023-02-01T04:23:48;10.20;;;3.05;;
10410;SDS011;5251;52.112;8.606;2023-02-01T04:26:13;7.93;;;2.67;;
10410;SDS011;5251;52.112;8.606;2023-02-01T04:28:41;8.98;;;2.78;;
10410;SDS011;5251;52.112;8.606;2023-02-01T04:31:07;10.57;;;3.08;;
10410;SDS011;5251;52.112;8.606;2023-02-01T04:33:32;8.00;;;2.47;;
10410;SDS011;5251;52.112;8.606;2023-02-01T04:35:58;10.20;;;2.40;;
10410;SDS011;5251;52.112;8.606;2023-02-01T04:38:24;12.68;;;3.00;;
10410;SDS011;5251;52.112;8.606;2023-02-01T04:40:49;12.15;;;2.92;;
10410;SDS011;5251;52.112;8.606;2023-02-01T04:43:15;10.95;;;2.78;;
10410;SDS011;5251;52.112;8.606;2023-02-01T04:45:46;14.60;;;3.28;;
10410;SDS011;5251;52.112;8.606;2023-02-01T04:48:12;11.07;;;2.65;;
10410;SDS011;5251;52.112;8.606;2023-02-01T04:50:38;10.93;;;2.58;;
10410;SDS011;5251;52.112;8.606;2023-02-01T04:53:03;7.97;;;2.47;;
10410;SDS011;5251;52.112;8.606;2023-02-01T04:55:29;10.07;;;3.03;;
10410;SDS011;5251;52.112;8.606;2023-02-01T04:57:55;14.95;;;3.10;;
10410;SDS011;5251;52.112;8.606;2023-02-01T05:00:21;10.02;;;3.03;;
10410;SDS011;5251;52.112;8.606;2023-02-01T05:02:47;12.65;;;3.22;;
10410;SDS011;5251;52.112;8.606;2023-02-01T05:05:12;11.45;;;2.90;;
10410;SDS011;5251;52.112;8.606;2023-02-01T05:07:38;11.25;;;3.25;;
10410;SDS011;5251;52.112;8.606;2023-02-01T05:10:04;9.15;;;3.17;;
10410;SDS011;5251;52.112;8.606;2023-02-01T05:12:29;8.77;;;2.30;;
10410;SDS011;5251;52.112;8.606;2023-02-01T05:15:14;15.43;;;4.15;;
10410;SDS011;5251;52.112;8.606;2023-02-01T05:17:39;10.18;;;2.53;;
10410;SDS011;5251;52.112;8.606;2023-02-01T05:20:05;12.20;;;3.30;;
10410;SDS011;5251;52.112;8.606;2023-02-01T05:22:32;10.07;;;3.22;;
10410;SDS011;5251;52.112;8.606;2023-02-01T05:24:57;9.00;;;2.58;;
10410;SDS011;5251;52.112;8.606;2023-02-01T05:27:23;9.23;;;3.17;;
10410;SDS011;5251;52.112;8.606;2023-02-01T05:29:49;9.93;;;3.05;;
10410;SDS011;5251;52.112;8.606;2023-02-01T05:32:14;12.77;;;2.60;;
10410;SDS011;5251;52.112;8.606;2023-02-01T05:34:40;10.15;;;2.80;;
10410;SDS011;5251;52.112;8.606;2023-02-01T05:37:05;11.20;;;3.10;;
10410;SDS011;5251;52.112;8.606;2023-02-01T05:39:31;11.80;;;2.80;;
10410;SDS011;5251;52.112;8.606;2023-02-01T05:41:56;13.88;;;3.55;;
10410;SDS011;5251;52.112;8.606;2023-02-01T05:44:22;9.15;;;2.60;;
10410;SDS011;5251;52.112;8.606;2023-02-01T05:46:47;11.48;;;3.10;;
10410;SDS011;5251;52.112;8.606;2023-02-01T05:49:13;9.63;;;2.70;;
10410;SDS011;5251;52.112;8.606;2023-02-01T05:51:38;15.43;;;3.97;;
10410;SDS011;5251;52.112;8.606;2023-02-01T05:54:04;15.40;;;3.08;;
10410;SDS011;5251;52.112;8.606;2023-02-01T05:56:30;13.75;;;3.60;;
10410;SDS011;5251;52.112;8.606;2023-02-01T05:58:55;11.15;;;3.13;;
10410;SDS011;5251;52.112;8.606;2023-02-01T06:01:21;11.98;;;2.80;;
10410;SDS011;5251;52.112;8.606;2023-02-01T06:03:46;13.65;;;2.80;;
10410;SDS011;5251;52.112;8.606;2023-02-01T06:06:12;10.18;;;3.00;;
10410;SDS011;5251;52.112;8.606;2023-02-01T06:08:37;10.02;;;2.97;;
10410;SDS011;5251;52.112;8.606;2023-02-01T06:11:05;11.73;;;3.15;;
10410;SDS011;5251;52.112;8.606;2023-02-01T06:13:31;11.15;;;3.03;;
10410;SDS011;5251;52.112;8.606;2023-02-01T06:15:57;10.00;;;3.00;;
10410;SDS011;5251;52.112;8.606;2023-02-01T06:18:23;10.48;;;3.20;;
10410;SDS011;5251;52.112;8.606;2023-02-01T06:20:56;11.27;;;2.92;;
10410;SDS011;5251;52.112;8.606;2023-02-01T06:23:24;10.88;;;3.22;;
10410;SDS011;5251;52.112;8.606;2023-02-01T06:25:51;7.65;;;3.10;;
10410;SDS011;5251;52.112;8.606;2023-02-01T06:28:18;9.63;;;2.80;;
10410;SDS011;5251;52.112;8.606;2023-02-01T06:30:44;13.00;;;3.30;;
10410;SDS011;5251;52.112;8.606;2023-02-01T06:33:11;11.68;;;3.13;;
10410;SDS011;5251;52.112;8.606;2023-02-01T06:35:40;13.65;;;3.33;;
10410;SDS011;5251;52.112;8.606;2023-02-01T06:38:09;8.60;;;2.75;;
10410;SDS011;5251;52.112;8.606;2023-02-01T06:40:39;10.05;;;2.88;;
10410;SDS011;5251;52.112;8.606;2023-02-01T06:43:08;14.38;;;3.25;;
10410;SDS011;5251;52.112;8.606;2023-02-01T06:45:34;11.50;;;2.78;;
10410;SDS011;5251;52.112;8.606;2023-02-01T06:47:59;10.35;;;3.25;;
10410;SDS011;5251;52.112;8.606;2023-02-01T06:50:25;11.60;;;2.90;;
10410;SDS011;5251;52.112;8.606;2023-02-01T06:52:51;7.45;;;2.67;;
10410;SDS011;5251;52.112;8.606;2023-02-01T06:55:17;12.23;;;3.47;;
10410;SDS011;5251;52.112;8.606;2023-02-01T06:57:42;8.05;;;2.38;;
10410;SDS011;5251;52.112;8.606;2023-02-01T07:00:08;12.40;;;2.97;;
10410;SDS011;5251;52.112;8.606;2023-02-01T07:02:34;10.38;;;2.60;;
10410;SDS011;5251;52.112;8.606;2023-02-01T07:05:00;12.38;;;3.15;;
10410;SDS011;5251;52.112;8.606;2023-02-01T07:07:25;11.18;;;3.47;;
10410;SDS011;5251;52.112;8.606;2023-02-01T07:09:51;8.50;;;2.50;;
10410;SDS011;5251;52.112;8.606;2023-02-01T07:12:16;10.45;;;2.85;;
10410;SDS011;5251;52.112;8.606;2023-02-01T07:14:43;10.88;;;2.80;;
10410;SDS011;5251;52.112;8.606;2023-02-01T07:17:09;9.70;;;3.20;;
10410;SDS011;5251;52.112;8.606;2023-02-01T07:19:34;11.15;;;2.80;;
10410;SDS011;5251;52.112;8.606;2023-02-01T07:22:00;16.17;;;3.53;;
10410;SDS011;5251;52.112;8.606;2023-02-01T07:24:25;12.35;;;3.22;;
10410;SDS011;5251;52.112;8.606;2023-02-01T07:26:51;8.63;;;2.60;;
10410;SDS011;5251;52.112;8.606;2023-02-01T07:29:17;10.07;;;2.80;;
10410;SDS011;5251;52.112;8.606;2023-02-01T07:31:43;6.47;;;2.40;;
10410;SDS011;5251;52.112;8.606;2023-02-01T07:34:10;12.85;;;3.08;;
10410;SDS011;5251;52.112;8.606;2023-02-01T07:36:35;13.52;;;4.15;;
10410;SDS011;5251;52.112;8.606;2023-02-01T07:39:02;10.32;;;2.78;;
10410;SDS011;5251;52.112;8.606;2023-02-01T07:41:28;14.75;;;2.83;;
10410;SDS011;5251;52.112;8.606;2023-02-01T07:43:54;12.50;;;2.85;;
10410;SDS011;5251;52.112;8.606;2023-02-01T07:46:20;11.05;;;3.03;;
10410;SDS011;5251;52.112;8.606;2023-02-01T07:48:45;9.13;;;2.90;;
10410;SDS011;5251;52.112;8.606;2023-02-01T07:51:12;9.50;;;2.60;;
10410;SDS011;5251;52.112;8.606;2023-02-01T07:53:39;10.23;;;2.78;;
10410;SDS011;5251;52.112;8.606;2023-02-01T07:56:13;11.35;;;3.42;;
10410;SDS011;5251;52.112;8.606;2023-02-01T07:58:40;12.13;;;3.05;;
10410;SDS011;5251;52.112;8.606;2023-02-01T08:01:10;10.20;;;2.90;;
10410;SDS011;5251;52.112;8.606;2023-02-01T08:03:56;8.68;;;2.78;;
10410;SDS011;5251;52.112;8.606;2023-02-01T08:06:26;8.55;;;2.55;;
10410;SDS011;5251;52.112;8.606;2023-02-01T08:08:54;7.95;;;2.95;;
10410;SDS011;5251;52.112;8.606;2023-02-01T08:11:20;9.27;;;2.50;;
10410;SDS011;5251;52.112;8.606;2023-02-01T08:13:47;10.65;;;3.22;;
10410;SDS011;5251;52.112;8.606;2023-02-01T08:16:14;11.70;;;3.63;;
10410;SDS011;5251;52.112;8.606;2023-02-01T08:18:41;10.38;;;3.00;;
10410;SDS011;5251;52.112;8.606;2023-02-01T08:21:14;11.13;;;2.95;;
10410;SDS011;5251;52.112;8.606;2023-02-01T08:23:42;12.90;;;3.30;;
10410;SDS011;5251;52.112;8.606;2023-02-01T08:26:09;9.32;;;2.80;;
10410;SDS011;5251;52.112;8.606;2023-02-01T08:28:40;9.93;;;2.72;;
10410;SDS011;5251;52.112;8.606;2023-02-01T08:31:09;12.02;;;3.35;;
10410;SDS011;5251;52.112;8.606;2023-02-01T08:33:39;9.75;;;3.38;;
10410;SDS011;5251;52.112;8.606;2023-02-01T08:36:06;10.23;;;3.50;;
10410;SDS011;5251;52.112;8.606;2023-02-01T08:38:37;8.20;;;2.72;;
10410;SDS011;5251;52.112;8.606;2023-02-01T08:41:24;10.10;;;2.80;;
10410;SDS011;5251;52.112;8.606;2023-02-01T08:43:52;12.05;;;3.22;;
10410;SDS011;5251;52.112;8.606;2023-02-01T08:46:19;8.23;;;2.72;;
10410;SDS011;5251;52.112;8.606;2023-02-01T08:48:45;8.23;;;3.13;;
10410;SDS011;5251;52.112;8.606;2023-02-01T08:51:12;10.63;;;2.72;;
10410;SDS011;5251;52.112;8.606;2023-02-01T08:53:39;8.98;;;2.50;;
10410;SDS011;5251;52.112;8.606;2023-02-01T08:56:06;10.55;;;2.95;;
10410;SDS011;5251;52.112;8.606;2023-02-01T08:58:33;9.10;;;2.75;;
10410;SDS011;5251;52.112;8.606;2023-02-01T09:01:06;8.32;;;3.25;;
10410;SDS011;5251;52.112;8.606;2023-02-01T09:03:33;11.85;;;2.60;;
10410;SDS011;5251;52.112;8.606;2023-02-01T09:06:00;11.93;;;3.05;;
10410;SDS011;5251;52.112;8.606;2023-02-01T09:08:29;11.00;;;2.95;;
10410;SDS011;5251;52.112;8.606;2023-02-01T09:11:02;6.88;;;2.60;;
10410;SDS011;5251;52.112;8.606;2023-02-01T09:13:29;7.85;;;2.70;;
10410;SDS011;5251;52.112;8.606;2023-02-01T09:15:55;12.60;;;3.15;;
10410;SDS011;5251;52.112;8.606;2023-02-01T09:18:20;10.30;;;3.17;;
10410;SDS011;5251;52.112;8.606;2023-02-01T09:20:46;10.23;;;3.13;;
10410;SDS011;5251;52.112;8.606;2023-02-01T09:23:12;11.88;;;3.10;;
10410;SDS011;5251;52.112;8.606;2023-02-01T09:25:38;11.10;;;2.92;;
10410;SDS011;5251;52.112;8.606;2023-02-01T09:28:04;10.10;;;3.15;;
10410;SDS011;5251;52.112;8.606;2023-02-01T09:30:31;11.07;;;3.38;;
10410;SDS011;5251;52.112;8.606;2023-02-01T09:32:57;9.55;;;2.95;;
10410;SDS011;5251;52.112;8.606;2023-02-01T09:35:23;13.15;;;3.90;;
10410;SDS011;5251;52.112;8.606;2023-02-01T09:37:49;9.75;;;2.97;;
10410;SDS011;5251;52.112;8.606;2023-02-01T09:40:15;9.73;;;2.92;;
10410;SDS011;5251;52.112;8.606;2023-02-01T09:48:15;8.05;;;2.50;;
10410;SDS011;5251;52.112;8.606;2023-02-01T09:50:57;8.50;;;2.60;;
10410;SDS011;5251;52.112;8.606;2023-02-01T09:53:26;7.97;;;2.28;;
10410;SDS011;5251;52.112;8.606;2023-02-01T09:56:00;7.13;;;2.75;;
10410;SDS011;5251;52.112;8.606;2023-02-01T09:58:36;9.45;;;2.58;;
10410;SDS011;5251;52.112;8.606;2023-02-01T10:01:10;7.68;;;2.75;;
10410;SDS011;5251;52.112;8.606;2023-02-01T10:03:44;7.18;;;2.35;;
10410;SDS011;5251;52.112;8.606;2023-02-01T10:06:28;11.48;;;2.65;;
10410;SDS011;5251;52.112;8.606;2023-02-01T10:09:11;8.88;;;2.63;;
10410;SDS011;5251;52.112;8.606;2023-02-01T10:17:19;8.38;;;2.40;;
10410;SDS011;5251;52.112;8.606;2023-02-01T10:22:47;10.52;;;2.83;;
10410;SDS011;5251;52.112;8.606;2023-02-01T10:25:26;12.98;;;3.38;;
10410;SDS011;5251;52.112;8.606;2023-02-01T10:27:53;7.40;;;2.72;;
10410;SDS011;5251;52.112;8.606;2023-02-01T10:30:20;8.45;;;2.63;;
10410;SDS011;5251;52.112;8.606;2023-02-01T10:33:01;8.63;;;2.95;;
10410;SDS011;5251;52.112;8.606;2023-02-01T10:35:39;8.55;;;3.05;;
10410;SDS011;5251;52.112;8.606;2023-02-01T10:38:08;6.22;;;2.65;;
10410;SDS011;5251;52.112;8.606;2023-02-01T10:40:43;9.68;;;2.70;;
10410;SDS011;5251;52.112;8.606;2023-02-01T10:43:09;9.18;;;2.80;;
10410;SDS011;5251;52.112;8.606;2023-02-01T10:45:35;7.32;;;2.75;;
10410;SDS011;5251;52.112;8.606;2023-02-01T10:48:04;6.13;;;2.90;;
10410;SDS011;5251;52.112;8.606;2023-02-01T10:53:20;10.25;;;2.80;;
10410;SDS011;5251;52.112;8.606;2023-02-01T10:55:50;9.70;;;2.80;;
10410;SDS011;5251;52.112;8.606;2023-02-01T11:01:06;6.53;;;2.70;;
10410;SDS011;5251;52.112;8.606;2023-02-01T11:06:17;7.00;;;2.20;;
10410;SDS011;5251;52.112;8.606;2023-02-01T11:08:59;8.82;;;2.70;;
10410;SDS011;5251;52.112;8.606;2023-02-01T11:12:20;6.07;;;2.60;;
10410;SDS011;5251;52.112;8.606;2023-02-01T11:16:50;8.30;;;2.67;;
10410;SDS011;5251;52.112;8.606;2023-02-01T11:19:19;8.05;;;2.33;;
10410;SDS011;5251;52.112;8.606;2023-02-01T11:21:45;8.48;;;2.70;;
10410;SDS011;5251;52.112;8.606;2023-02-01T11:24:25;6.63;;;2.20;;
10410;SDS011;5251;52.112;8.606;2023-02-01T11:26:54;8.77;;;2.83;;
10410;SDS011;5251;52.112;8.606;2023-02-01T11:29:21;6.72;;;2.30;;
10410;SDS011;5251;52.112;8.606;2023-02-01T11:31:53;8.77;;;2.42;;
10410;SDS011;5251;52.112;8.606;2023-02-01T11:34:25;11.63;;;2.53;;
10410;SDS011;5251;52.112;8.606;2023-02-01T11:36:58;11.32;;;2.92;;
10410;SDS011;5251;52.112;8.606;2023-02-01T11:39:30;8.93;;;2.50;;
10410;SDS011;5251;52.112;8.606;2023-02-01T11:42:16;8.88;;;2.47;;
10410;SDS011;5251;52.112;8.606;2023-02-01T11:44:43;9.27;;;2.50;;
10410;SDS011;5251;52.112;8.606;2023-02-01T11:49:59;11.73;;;3.40;;
10410;SDS011;5251;52.112;8.606;2023-02-01T11:58:45;11.10;;;3.00;;
10410;SDS011;5251;52.112;8.606;2023-02-01T12:04:15;10.68;;;2.28;;
10410;SDS011;5251;52.112;8.606;2023-02-01T12:06:54;9.07;;;2.40;;
10410;SDS011;5251;52.112;8.606;2023-02-01T12:10:37;8.20;;;2.45;;
10410;SDS011;5251;52.112;8.606;2023-02-01T12:13:20;8.57;;;2.50;;
10410;SDS011;5251;52.112;8.606;2023-02-01T12:21:22;7.80;;;2.25;;
10410;SDS011;5251;52.112;8.606;2023-02-01T12:24:03;5.90;;;2.10;;
10410;SDS011;5251;52.112;8.606;2023-02-01T12:27:00;4.18;;;1.90;;
10410;SDS011;5251;52.112;8.606;2023-02-01T12:46:12;6.18;;;2.28;;
10410;SDS011;5251;52.112;8.606;2023-02-01T12:48:44;4.88;;;2.08;;
10410;SDS011;5251;52.112;8.606;2023-02-01T12:51:23;5.50;;;2.13;;
10410;SDS011;5251;52.112;8.606;2023-02-01T12:56:37;5.55;;;2.28;;
10410;SDS011;5251;52.112;8.606;2023-02-01T12:59:55;6.50;;;2.75;;
10410;SDS011;5251;52.112;8.606;2023-02-01T13:02:19;6.03;;;2.15;;
10410;SDS011;5251;52.112;8.606;2023-02-01T13:05:12;6.43;;;2.33;;
10410;SDS011;5251;52.112;8.606;2023-02-01T13:07:50;6.55;;;2.38;;
10410;SDS011;5251;52.112;8.606;2023-02-01T13:18:39;6.05;;;2.95;;
10410;SDS011;5251;52.112;8.606;2023-02-01T13:21:12;5.45;;;2.85;;
10410;SDS011;5251;52.112;8.606;2023-02-01T13:23:46;11.85;;;3.35;;
10410;SDS011;5251;52.112;8.606;2023-02-01T13:26:13;4.90;;;2.75;;
10410;SDS011;5251;52.112;8.606;2023-02-01T13:31:46;8.20;;;2.50;;
10410;SDS011;5251;52.112;8.606;2023-02-01T13:43:14;5.75;;;2.63;;
10410;SDS011;5251;52.112;8.606;2023-02-01T13:45:49;7.35;;;2.50;;
10410;SDS011;5251;52.112;8.606;2023-02-01T13:48:59;8.10;;;2.55;;
10410;SDS011;5251;52.112;8.606;2023-02-01T13:51:05;8.63;;;2.72;;
10410;SDS011;5251;52.112;8.606;2023-02-01T13:53:32;7.75;;;2.75;;
10410;SDS011;5251;52.112;8.606;2023-02-01T13:56:03;8.80;;;2.95;;
10410;SDS011;5251;52.112;8.606;2023-02-01T13:58:35;10.50;;;2.90;;
10410;SDS011;5251;52.112;8.606;2023-02-01T14:03:46;8.13;;;2.45;;
10410;SDS011;5251;52.112;8.606;2023-02-01T14:06:18;7.35;;;2.45;;
10410;SDS011;5251;52.112;8.606;2023-02-01T14:19:36;9.68;;;2.25;;
10410;SDS011;5251;52.112;8.606;2023-02-01T14:24:53;4.47;;;1.80;;
10410;SDS011;5251;52.112;8.606;2023-02-01T14:27:30;5.97;;;2.30;;
10410;SDS011;5251;52.112;8.606;2023-02-01T14:30:02;4.82;;;1.90;;
10410;SDS011;5251;52.112;8.606;2023-02-01T14:32:38;6.70;;;2.20;;
10410;SDS011;5251;52.112;8.606;2023-02-01T14:35:07;3.83;;;1.77;;
10410;SDS011;5251;52.112;8.606;2023-02-01T14:37:42;5.47;;;2.05;;
10410;SDS011;5251;52.112;8.606;2023-02-01T14:47:53;3.08;;;1.25;;
10410;SDS011;5251;52.112;8.606;2023-02-01T14:58:10;3.00;;;1.20;;
10410;SDS011;5251;52.112;8.606;2023-02-01T15:00:55;3.85;;;1.27;;
10410;SDS011;5251;52.112;8.606;2023-02-01T15:03:32;4.68;;;1.30;;
10410;SDS011;5251;52.112;8.606;2023-02-01T15:06:14;3.38;;;1.40;;
10410;SDS011;5251;52.112;8.606;2023-02-01T15:08:49;4.57;;;1.50;;
10410;SDS011;5251;52.112;8.606;2023-02-01T15:11:19;3.70;;;1.45;;
10410;SDS011;5251;52.112;8.606;2023-02-01T15:13:52;6.25;;;2.13;;
10410;SDS011;5251;52.112;8.606;2023-02-01T15:16:20;5.50;;;1.70;;
10410;SDS011;5251;52.112;8.606;2023-02-01T15:18:48;5.55;;;1.80;;
10410;SDS011;5251;52.112;8.606;2023-02-01T15:21:18;7.97;;;2.20;;
10410;SDS011;5251;52.112;8.606;2023-02-01T15:23:45;8.60;;;1.95;;
10410;SDS011;5251;52.112;8.606;2023-02-01T15:26:24;6.80;;;1.77;;
10410;SDS011;5251;52.112;8.606;2023-02-01T15:28:53;3.80;;;1.75;;
10410;SDS011;5251;52.112;8.606;2023-02-01T15:31:31;9.93;;;2.53;;
10410;SDS011;5251;52.112;8.606;2023-02-01T15:34:01;9.75;;;2.75;;
10410;SDS011;5251;52.112;8.606;2023-02-01T15:36:27;7.97;;;2.25;;
10410;SDS011;5251;52.112;8.606;2023-02-01T15:41:57;6.10;;;1.90;;
10410;SDS011;5251;52.112;8.606;2023-02-01T15:44:30;8.32;;;2.15;;
10410;SDS011;5251;52.112;8.606;2023-02-01T15:47:08;5.80;;;2.05;;
10410;SDS011;5251;52.112;8.606;2023-02-01T15:49:41;5.40;;;1.98;;
10410;SDS011;5251;52.112;8.606;2023-02-01T15:52:25;4.45;;;2.15;;
10410;SDS011;5251;52.112;8.606;2023-02-01T15:54:53;5.65;;;1.90;;
10410;SDS011;5251;52.112;8.606;2023-02-01T15:57:23;4.75;;;2.00;;
10410;SDS011;5251;52.112;8.606;2023-02-01T16:00:01;7.25;;;2.40;;
10410;SDS011;5251;52.112;8.606;2023-02-01T16:02:36;5.28;;;2.03;;
10410;SDS011;5251;52.112;8.606;2023-02-01T16:08:16;7.38;;;2.75;;
10410;SDS011;5251;52.112;8.606;2023-02-01T16:10:48;6.13;;;2.33;;
10410;SDS011;5251;52.112;8.606;2023-02-01T16:13:15;11.27;;;2.20;;
10410;SDS011;5251;52.112;8.606;2023-02-01T16:15:42;8.07;;;2.47;;
10410;SDS011;5251;52.112;8.606;2023-02-01T16:18:08;5.88;;;2.20;;
10410;SDS011;5251;52.112;8.606;2023-02-01T16:20:36;10.93;;;2.30;;
10410;SDS011;5251;52.112;8.606;2023-02-01T16:23:04;5.45;;;2.15;;
10410;SDS011;5251;52.112;8.606;2023-02-01T16:25:31;9.02;;;2.45;;
10410;SDS011;5251;52.112;8.606;2023-02-01T16:27:56;9.00;;;2.88;;
10410;SDS011;5251;52.112;8.606;2023-02-01T16:30:22;5.47;;;2.10;;
10410;SDS011;5251;52.112;8.606;2023-02-01T16:32:51;2.90;;;1.40;;
10410;SDS011;5251;52.112;8.606;2023-02-01T16:35:26;4.03;;;1.27;;
10410;SDS011;5251;52.112;8.606;2023-02-01T16:37:53;3.22;;;1.35;;
10410;SDS011;5251;52.112;8.606;2023-02-01T16:40:19;6.22;;;1.35;;
10410;SDS011;5251;52.112;8.606;2023-02-01T16:42:47;3.88;;;1.88;;
10410;SDS011;5251;52.112;8.606;2023-02-01T16:45:16;3.47;;;1.20;;
10410;SDS011;5251;52.112;8.606;2023-02-01T16:47:47;3.85;;;1.35;;
10410;SDS011;5251;52.112;8.606;2023-02-01T16:50:17;3.90;;;1.65;;
10410;SDS011;5251;52.112;8.606;2023-02-01T16:52:46;6.32;;;1.92;;
10410;SDS011;5251;52.112;8.606;2023-02-01T16:55:12;6.55;;;2.00;;
10410;SDS011;5251;52.112;8.606;2023-02-01T16:57:40;5.85;;;2.40;;
10410;SDS011;5251;52.112;8.606;2023-02-01T17:00:07;11.43;;;2.55;;
10410;SDS011;5251;52.112;8.606;2023-02-01T17:02:34;6.03;;;2.90;;
10410;SDS011;5251;52.112;8.606;2023-02-01T17:04:59;9.10;;;2.88;;
10410;SDS011;5251;52.112;8.606;2023-02-01T17:07:25;10.88;;;2.25;;
10410;SDS011;5251;52.112;8.606;2023-02-01T17:09:51;9.35;;;2.60;;
10410;SDS011;5251;52.112;8.606;2023-02-01T17:14:50;10.07;;;2.90;;
10410;SDS011;5251;52.112;8.606;2023-02-01T17:17:16;13.65;;;3.15;;
10410;SDS011;5251;52.112;8.606;2023-02-01T17:19:47;13.10;;;2.78;;
10410;SDS011;5251;52.112;8.606;2023-02-01T17:22:21;12.75;;;3.08;;
10410;SDS011;5251;52.112;8.606;2023-02-01T17:24:47;9.30;;;2.58;;
10410;SDS011;5251;52.112;8.606;2023-02-01T17:27:14;10.07;;;2.15;;
10410;SDS011;5251;52.112;8.606;2023-02-01T17:29:40;7.28;;;2.75;;
10410;SDS011;5251;52.112;8.606;2023-02-01T17:32:09;11.23;;;2.58;;
10410;SDS011;5251;52.112;8.606;2023-02-01T17:34:44;8.20;;;2.50;;
10410;SDS011;5251;52.112;8.606;2023-02-01T17:37:15;7.63;;;2.22;;
10410;SDS011;5251;52.112;8.606;2023-02-01T17:39:51;7.78;;;2.28;;
10410;SDS011;5251;52.112;8.606;2023-02-01T17:42:19;10.02;;;2.55;;
10410;SDS011;5251;52.112;8.606;2023-02-01T17:44:46;9.75;;;2.22;;
10410;SDS011;5251;52.112;8.606;2023-02-01T17:47:12;10.50;;;2.70;;
10410;SDS011;5251;52.112;8.606;2023-02-01T17:49:37;10.35;;;2.20;;